createdAt,value
2018-12-19T00:01:46.508Z,74.68
2018-12-19T00:04:19.596Z,74.87
2018-12-19T00:06:45.675Z,74.66
2018-12-19T00:09:11.877Z,74.87
2018-12-19T00:11:37.993Z,74.35
2018-12-19T00:14:04.428Z,74.99
2018-12-19T00:16:30.601Z,74.85
2018-12-19T00:18:56.718Z,75.03
2018-12-19T00:21:22.846Z,74.09
2018-12-19T00:23:49.105Z,73.85
2018-12-19T00:26:15.310Z,73.27
2018-12-19T00:28:41.575Z,74.29
2018-12-19T00:31:07.777Z,73.35
2018-12-19T00:33:34.114Z,73.90
2018-12-19T00:36:00.257Z,73.84
2018-12-19T00:38:26.551Z,73.11
2018-12-19T00:40:52.801Z,73.65
2018-12-19T00:43:18.993Z,73.43
2018-12-19T00:45:45.172Z,73.07
2018-12-19T00:48:11.620Z,72.95
2018-12-19T00:50:37.754Z,73.12
2018-12-19T00:53:03.959Z,73.21
2018-12-19T00:55:30.355Z,73.09
2018-12-19T00:57:56.557Z,73.73
2018-12-19T01:00:22.854Z,72.83
2018-12-19T01:02:49.022Z,73.11
2018-12-19T01:05:15.241Z,72.94
2018-12-19T01:07:41.480Z,73.44
2018-12-19T01:10:07.895Z,74.17
2018-12-19T01:12:33.991Z,73.10
2018-12-19T01:15:00.088Z,72.35
2018-12-19T01:17:26.204Z,72.59
2018-12-19T01:19:52.329Z,72.13
2018-12-19T01:22:18.544Z,71.85
2018-12-19T01:24:44.699Z,72.73
2018-12-19T01:27:10.826Z,72.94
2018-12-19T01:29:36.945Z,72.50
2018-12-19T01:32:03.168Z,72.46
2018-12-19T01:34:29.292Z,72.45
2018-12-19T01:36:55.586Z,71.99
2018-12-19T01:39:22.528Z,71.83
2018-12-19T01:41:49.058Z,71.70
2018-12-19T01:44:15.302Z,71.82
2018-12-19T01:46:41.504Z,71.10
2018-12-19T01:49:07.589Z,71.75
2018-12-19T01:51:33.828Z,71.73
2018-12-19T01:54:00.082Z,71.42
2018-12-19T01:56:26.319Z,71.47
2018-12-19T01:58:52.525Z,72.07
2018-12-19T02:01:18.938Z,71.45
2018-12-19T02:03:45.032Z,71.77
2018-12-19T02:06:11.149Z,71.44
2018-12-19T02:08:37.270Z,71.08
2018-12-19T02:11:03.572Z,71.03
2018-12-19T02:13:29.647Z,71.82
2018-12-19T02:15:55.978Z,71.93
2018-12-19T02:18:22.218Z,71.10
2018-12-19T02:20:48.344Z,70.68
2018-12-19T02:23:14.562Z,71.03
2018-12-19T02:25:40.696Z,70.81
2018-12-19T02:28:07.026Z,70.64
2018-12-19T02:30:33.724Z,69.98
2018-12-19T02:32:59.993Z,70.92
2018-12-19T02:35:26.295Z,70.24
2018-12-19T02:37:52.396Z,70.94
2018-12-19T02:40:18.672Z,71.23
2018-12-19T02:42:45.518Z,70.82
2018-12-19T02:45:11.649Z,70.58
2018-12-19T02:47:37.847Z,70.91
2018-12-19T02:50:04.921Z,70.07
2018-12-19T02:52:31.096Z,70.69
2018-12-19T02:54:57.388Z,69.89
2018-12-19T02:57:23.645Z,69.65
2018-12-19T02:59:49.774Z,70.05
2018-12-19T03:02:16.028Z,70.15
2018-12-19T03:04:42.127Z,70.39
2018-12-19T03:07:08.252Z,71.06
2018-12-19T03:09:34.388Z,70.31
2018-12-19T03:12:00.629Z,70.72
2018-12-19T03:14:26.997Z,70.86
2018-12-19T03:16:53.097Z,71.08
2018-12-19T03:19:19.457Z,70.07
2018-12-19T03:21:45.682Z,70.10
2018-12-19T03:24:12.308Z,69.91
2018-12-19T03:26:38.421Z,69.84
2018-12-19T03:29:04.562Z,69.98
2018-12-19T03:31:30.774Z,69.32
2018-12-19T03:33:56.886Z,69.61
2018-12-19T03:36:23.319Z,69.33
2018-12-19T03:38:49.541Z,69.50
2018-12-19T03:41:15.777Z,69.46
2018-12-19T03:43:42.004Z,69.20
2018-12-19T03:46:08.306Z,69.12
2018-12-19T03:48:40.668Z,68.89
2018-12-19T03:51:06.885Z,68.92
2018-12-19T03:53:33.109Z,68.04
2018-12-19T03:55:59.439Z,68.87
2018-12-19T03:58:25.817Z,68.76
2018-12-19T04:03:47.928Z,68.26
2018-12-19T04:06:14.341Z,68.33
2018-12-19T04:08:47.669Z,68.57
2018-12-19T04:11:13.855Z,68.91
2018-12-19T04:13:40.123Z,68.26
2018-12-19T04:16:06.473Z,68.39
2018-12-19T04:18:32.660Z,68.12
2018-12-19T04:20:58.973Z,67.83
2018-12-19T04:23:25.408Z,68.65
2018-12-19T04:25:51.581Z,69.15
2018-12-19T04:28:17.825Z,67.43
2018-12-19T04:30:44.074Z,67.87
2018-12-19T04:33:10.366Z,67.40
2018-12-19T04:35:37.432Z,67.83
2018-12-19T04:38:03.725Z,67.43
2018-12-19T04:40:29.930Z,67.95
2018-12-19T04:42:56.176Z,67.50
2018-12-19T04:45:22.357Z,68.18
2018-12-19T04:47:48.694Z,67.31
2018-12-19T04:50:15.066Z,67.74
2018-12-19T04:52:41.248Z,67.89
2018-12-19T04:55:07.472Z,67.89
2018-12-19T04:57:33.730Z,67.51
2018-12-19T04:59:59.927Z,68.05
2018-12-19T05:02:26.111Z,67.52
2018-12-19T05:04:52.191Z,67.09
2018-12-19T05:07:20.115Z,67.16
2018-12-19T05:09:46.480Z,67.52
2018-12-19T05:12:12.738Z,67.57
2018-12-19T05:14:39.398Z,67.33
2018-12-19T05:17:05.577Z,66.79
2018-12-19T05:19:31.704Z,67.07
2018-12-19T05:21:57.832Z,67.11
2018-12-19T05:24:24.925Z,67.27
2018-12-19T05:26:51.129Z,67.36
2018-12-19T05:29:17.456Z,66.91
2018-12-19T05:31:43.613Z,67.01
2018-12-19T05:34:09.740Z,67.38
2018-12-19T05:36:36.111Z,67.42
2018-12-19T05:39:04.768Z,67.76
2018-12-19T05:41:30.958Z,67.77
2018-12-19T05:43:57.072Z,66.98
2018-12-19T05:46:23.246Z,67.35
2018-12-19T05:48:49.441Z,67.46
2018-12-19T05:51:16.397Z,67.37
2018-12-19T05:53:42.647Z,67.10
2018-12-19T05:56:08.773Z,67.19
2018-12-19T05:58:34.948Z,66.93
2018-12-19T06:01:01.157Z,67.06
2018-12-19T06:03:27.380Z,67.93
2018-12-19T06:05:53.532Z,67.64
2018-12-19T06:08:19.684Z,66.73
2018-12-19T06:10:52.953Z,67.04
2018-12-19T06:13:19.068Z,67.07
2018-12-19T06:15:45.389Z,66.86
2018-12-19T06:18:11.618Z,67.55
2018-12-19T06:20:37.724Z,67.75
2018-12-19T06:23:03.829Z,67.56
2018-12-19T06:25:30.060Z,66.58
2018-12-19T06:27:56.669Z,66.79
2018-12-19T06:30:23.880Z,67.23
2018-12-19T06:32:50.328Z,67.01
2018-12-19T06:35:16.466Z,66.30
2018-12-19T06:37:43.375Z,66.62
2018-12-19T06:40:09.580Z,66.31
2018-12-19T06:42:35.857Z,66.95
2018-12-19T06:45:02.495Z,66.32
2018-12-19T06:47:28.828Z,66.50
2018-12-19T06:49:55.065Z,66.28
2018-12-19T06:52:21.285Z,66.26
2018-12-19T06:54:47.422Z,66.58
2018-12-19T06:57:13.786Z,66.23
2018-12-19T06:59:40.148Z,66.68
2018-12-19T07:02:06.496Z,66.88
2018-12-19T07:04:32.669Z,66.23
2018-12-19T07:06:58.884Z,66.22
2018-12-19T07:09:25.303Z,65.49
2018-12-19T07:11:51.540Z,65.77
2018-12-19T07:14:17.771Z,65.68
2018-12-19T07:16:43.895Z,66.07
2018-12-19T07:19:10.117Z,65.65
2018-12-19T07:21:37.238Z,65.28
2018-12-19T07:24:03.583Z,65.19
2018-12-19T07:26:29.841Z,65.98
2018-12-19T07:28:55.961Z,65.81
2018-12-19T07:31:22.169Z,65.34
2018-12-19T07:33:48.432Z,64.96
2018-12-19T07:36:14.663Z,65.09
2018-12-19T07:38:40.832Z,64.51
2018-12-19T07:41:07.051Z,63.83
2018-12-19T07:43:33.235Z,64.11
2018-12-19T07:45:59.342Z,63.98
2018-12-19T07:48:25.890Z,63.86
2018-12-19T07:50:52.129Z,63.86
2018-12-19T07:53:18.253Z,63.17
2018-12-19T07:55:44.608Z,63.36
2018-12-19T07:58:11.178Z,63.61
2018-12-19T08:00:37.577Z,63.43
2018-12-19T08:03:04.672Z,63.35
2018-12-19T08:05:30.777Z,63.41
2018-12-19T08:07:56.880Z,62.91
2018-12-19T08:10:23.025Z,63.65
2018-12-19T08:12:49.186Z,62.83
2018-12-19T08:15:15.302Z,62.70
2018-12-19T08:17:41.378Z,61.94
2018-12-19T08:20:08.021Z,62.02
2018-12-19T08:22:34.960Z,62.22
2018-12-19T08:25:01.079Z,62.40
2018-12-19T08:27:27.249Z,61.88
2018-12-19T08:29:53.360Z,61.97
2018-12-19T08:32:19.889Z,62.11
2018-12-19T08:34:45.989Z,62.07
2018-12-19T08:37:12.098Z,62.04
2018-12-19T08:39:38.301Z,61.87
2018-12-19T08:42:05.897Z,61.89
2018-12-19T08:44:32.222Z,61.32
2018-12-19T08:46:58.400Z,61.65
2018-12-19T08:49:24.879Z,61.56
2018-12-19T08:51:51.206Z,60.58
2018-12-19T08:54:17.713Z,60.45
2018-12-19T08:56:44.004Z,60.08
2018-12-19T08:59:10.234Z,60.07
2018-12-19T09:01:36.419Z,60.35
2018-12-19T09:04:02.737Z,60.01
2018-12-19T09:06:28.865Z,60.68
2018-12-19T09:08:54.999Z,60.57
2018-12-19T09:11:21.067Z,59.80
2018-12-19T09:13:47.209Z,59.74
2018-12-19T09:16:13.815Z,59.88
2018-12-19T09:18:39.927Z,60.41
2018-12-19T09:21:06.039Z,59.70
2018-12-19T09:23:32.520Z,59.05
2018-12-19T09:25:58.644Z,58.68
2018-12-19T09:28:24.892Z,58.53
2018-12-19T09:30:51.103Z,59.25
2018-12-19T09:33:17.199Z,58.48
2018-12-19T09:35:43.313Z,58.22
2018-12-19T09:38:09.505Z,57.84
2018-12-19T09:40:35.781Z,58.23
2018-12-19T09:43:01.902Z,57.79
2018-12-19T09:45:28.124Z,58.43
2018-12-19T09:47:54.360Z,58.15
2018-12-19T09:50:20.540Z,58.20
2018-12-19T09:52:46.904Z,57.96
2018-12-19T09:55:13.106Z,58.05
2018-12-19T09:57:39.674Z,58.55
2018-12-19T10:00:10.346Z,57.26
2018-12-19T10:02:36.495Z,57.40
2018-12-19T10:05:02.983Z,56.74
2018-12-19T10:07:29.800Z,56.60
2018-12-19T10:09:56.317Z,55.96
2018-12-19T10:12:22.454Z,56.39
2018-12-19T10:14:49.600Z,56.07
2018-12-19T10:17:16.021Z,56.25
2018-12-19T10:19:42.143Z,56.31
2018-12-19T10:22:08.334Z,56.67
2018-12-19T10:24:40.679Z,56.83
2018-12-19T10:27:06.814Z,56.11
2018-12-19T10:29:33.075Z,55.66
2018-12-19T10:31:59.204Z,56.17
2018-12-19T10:34:26.276Z,56.57
2018-12-19T10:36:52.458Z,56.67
2018-12-19T10:39:18.882Z,56.49
2018-12-19T10:41:45.142Z,56.65
2018-12-19T10:44:11.861Z,57.03
2018-12-19T10:46:38.421Z,56.75
2018-12-19T10:49:04.896Z,56.37
2018-12-19T10:51:31.182Z,55.58
2018-12-19T10:53:57.290Z,56.02
2018-12-19T10:56:23.519Z,55.38
2018-12-19T10:58:49.698Z,55.07
2018-12-19T11:01:15.816Z,55.22
2018-12-19T11:03:41.986Z,54.61
2018-12-19T11:06:08.264Z,54.64
2018-12-19T11:08:34.588Z,55.22
2018-12-19T11:11:00.956Z,54.81
2018-12-19T11:13:27.296Z,54.96
2018-12-19T11:15:53.657Z,54.79
2018-12-19T11:18:19.974Z,54.70
2018-12-19T11:20:46.476Z,54.96
2018-12-19T11:23:12.717Z,55.25
2018-12-19T11:25:39.034Z,54.87
2018-12-19T11:28:05.372Z,55.40
2018-12-19T11:30:31.700Z,55.01
2018-12-19T11:32:58.173Z,55.31
2018-12-19T11:35:25.253Z,54.95
2018-12-19T11:37:51.408Z,55.76
2018-12-19T11:40:17.661Z,55.84
2018-12-19T11:42:43.766Z,55.65
2018-12-19T11:45:09.933Z,54.92
2018-12-19T11:47:36.307Z,54.71
2018-12-19T11:50:04.944Z,54.72
2018-12-19T11:52:31.164Z,54.70
2018-12-19T11:54:57.462Z,55.02
2018-12-19T11:57:23.781Z,54.59
2018-12-19T11:59:49.997Z,55.09
2018-12-19T12:02:16.254Z,55.68
2018-12-19T12:04:42.404Z,55.92
2018-12-19T12:07:15.645Z,55.57
2018-12-19T12:09:41.875Z,56.54
2018-12-19T12:12:08.055Z,55.64
2018-12-19T12:14:34.274Z,55.80
2018-12-19T12:17:00.541Z,55.80
2018-12-19T12:19:26.935Z,55.23
2018-12-19T12:21:53.270Z,56.44
2018-12-19T12:24:19.474Z,57.37
2018-12-19T12:26:45.626Z,56.66
2018-12-19T12:29:11.831Z,57.04
2018-12-19T12:31:38.286Z,56.62
2018-12-19T12:34:05.354Z,56.48
2018-12-19T12:36:31.587Z,56.18
2018-12-19T12:38:57.824Z,56.40
2018-12-19T12:41:24.155Z,55.77
2018-12-19T12:43:51.205Z,56.03
2018-12-19T12:46:17.386Z,55.97
2018-12-19T12:48:43.465Z,55.94
2018-12-19T12:51:10.317Z,55.55
2018-12-19T12:53:37.890Z,56.07
2018-12-19T12:56:04.086Z,56.35
2018-12-19T12:58:30.409Z,56.10
2018-12-19T13:00:56.659Z,56.08
2018-12-19T13:03:22.809Z,56.48
2018-12-19T13:05:49.022Z,57.22
2018-12-19T13:08:15.387Z,56.09
2018-12-19T13:10:41.735Z,55.71
2018-12-19T13:13:08.102Z,55.82
2018-12-19T13:15:38.327Z,55.75
2018-12-19T13:18:04.724Z,55.72
2018-12-19T13:20:31.143Z,55.31
2018-12-19T13:22:57.993Z,55.96
2018-12-19T13:25:24.317Z,56.01
2018-12-19T13:27:50.654Z,55.30
2018-12-19T13:30:16.865Z,55.30
2018-12-19T13:32:43.108Z,55.63
2018-12-19T13:35:09.269Z,55.15
2018-12-19T13:37:36.634Z,55.25
2018-12-19T13:40:03.569Z,54.47
2018-12-19T13:42:29.765Z,55.04
2018-12-19T13:44:55.885Z,55.43
2018-12-19T13:47:22.073Z,55.23
2018-12-19T13:49:48.331Z,56.10
2018-12-19T13:52:14.553Z,56.03
2018-12-19T13:54:41.024Z,55.60
2018-12-19T13:57:07.252Z,55.54
2018-12-19T13:59:34.132Z,55.41
2018-12-19T14:02:00.269Z,55.65
2018-12-19T14:04:27.504Z,56.36
2018-12-19T14:06:53.846Z,57.18
2018-12-19T14:09:20.488Z,57.04
2018-12-19T14:11:46.712Z,57.59
2018-12-19T14:14:13.140Z,57.18
2018-12-19T14:16:39.373Z,56.89
2018-12-19T14:19:05.493Z,57.56
2018-12-19T14:21:31.749Z,57.42
2018-12-19T14:23:57.907Z,57.08
2018-12-19T14:26:24.036Z,57.43
2018-12-19T14:28:50.297Z,57.78
2018-12-19T14:31:16.545Z,57.32
2018-12-19T14:33:42.717Z,57.26
2018-12-19T14:36:08.975Z,57.36
2018-12-19T14:38:35.085Z,57.25
2018-12-19T14:41:01.432Z,58.21
2018-12-19T14:43:27.573Z,57.53
2018-12-19T14:45:53.853Z,57.98
2018-12-19T14:48:19.987Z,57.70
2018-12-19T14:50:47.119Z,57.66
2018-12-19T14:53:13.423Z,58.39
2018-12-19T14:55:40.253Z,58.06
2018-12-19T14:58:06.434Z,58.07
2018-12-19T15:00:32.937Z,58.15
2018-12-19T15:02:59.135Z,59.02
2018-12-19T15:05:25.368Z,59.10
2018-12-19T15:07:52.277Z,59.68
2018-12-19T15:10:18.517Z,58.96
2018-12-19T15:12:44.621Z,59.93
2018-12-19T15:15:11.804Z,59.97
2018-12-19T15:17:37.945Z,59.18
2018-12-19T15:20:04.522Z,58.31
2018-12-19T15:22:30.878Z,58.99
2018-12-19T15:24:57.003Z,58.57
2018-12-19T15:27:23.213Z,58.84
2018-12-19T15:29:51.277Z,58.76
2018-12-19T15:32:17.540Z,59.64
2018-12-19T15:34:43.733Z,59.24
2018-12-19T15:37:10.274Z,59.37
2018-12-19T15:39:36.423Z,59.66
2018-12-19T15:42:02.774Z,59.65
2018-12-19T15:44:28.982Z,59.93
2018-12-19T15:46:55.221Z,60.31
2018-12-19T15:49:21.369Z,60.11
2018-12-19T15:51:48.464Z,60.81
2018-12-19T15:54:14.679Z,60.08
2018-12-19T15:56:41.017Z,61.72
2018-12-19T15:59:07.253Z,61.03
2018-12-19T16:01:33.775Z,61.95
2018-12-19T16:04:00.009Z,61.78
2018-12-19T16:06:26.532Z,62.01
2018-12-19T16:08:52.688Z,62.06
2018-12-19T16:11:20.064Z,61.70
2018-12-19T16:13:46.880Z,61.24
2018-12-19T16:16:13.908Z,61.77
2018-12-19T16:18:40.793Z,61.26
2018-12-19T16:21:07.014Z,61.00
2018-12-19T16:23:33.180Z,60.40
2018-12-19T16:25:59.359Z,60.22
2018-12-19T16:28:25.603Z,59.70
2018-12-19T16:30:51.766Z,59.61
2018-12-19T16:33:17.873Z,59.90
2018-12-19T16:35:44.037Z,59.76
2018-12-19T16:38:10.211Z,59.55
2018-12-19T16:40:37.525Z,58.81
2018-12-19T16:43:04.836Z,58.75
2018-12-19T16:45:31.382Z,59.45
2018-12-19T16:47:57.638Z,59.22
2018-12-19T16:50:23.747Z,58.73
2018-12-19T16:52:50.722Z,58.20
2018-12-19T16:55:17.844Z,58.72
2018-12-19T16:57:44.080Z,58.76
2018-12-19T17:00:10.435Z,58.83
2018-12-19T17:02:38.680Z,58.71
2018-12-19T17:05:06.456Z,59.21
2018-12-19T17:07:32.561Z,59.00
2018-12-19T17:09:58.711Z,58.82
2018-12-19T17:12:25.399Z,59.36
2018-12-19T17:14:51.585Z,59.23
2018-12-19T17:17:17.717Z,59.85
2018-12-19T17:19:44.609Z,59.91
2018-12-19T17:22:11.788Z,60.45
2018-12-19T17:24:38.786Z,60.43
2018-12-19T17:27:12.550Z,60.68
2018-12-19T17:29:39.603Z,60.86
2018-12-19T17:32:09.214Z,61.32
2018-12-19T17:34:35.346Z,61.89
2018-12-19T17:37:02.895Z,61.41
2018-12-19T17:39:29.895Z,60.99
2018-12-19T17:41:56.015Z,61.36
2018-12-19T17:44:22.333Z,60.51
2018-12-19T17:46:48.469Z,60.72
2018-12-19T17:49:15.170Z,60.51
2018-12-19T17:51:42.284Z,59.86
2018-12-19T17:54:09.414Z,60.85
2018-12-19T17:56:36.581Z,61.47
2018-12-19T17:59:04.800Z,61.34
2018-12-19T18:01:31.059Z,61.07
2018-12-19T18:03:57.151Z,61.34
2018-12-19T18:06:23.441Z,61.92
2018-12-19T18:08:49.574Z,61.94
2018-12-19T18:11:15.678Z,62.50
2018-12-19T18:13:41.997Z,62.31
2018-12-19T18:16:08.294Z,61.82
2018-12-19T18:18:34.513Z,61.79
2018-12-19T18:21:00.695Z,62.32
2018-12-19T18:23:26.960Z,61.85
2018-12-19T18:25:53.120Z,62.43
2018-12-19T18:28:19.897Z,62.29
2018-12-19T18:30:46.142Z,62.64
2018-12-19T18:33:12.253Z,63.22
2018-12-19T18:35:38.448Z,62.95
2018-12-19T18:38:04.633Z,62.97
2018-12-19T18:40:30.746Z,63.45
2018-12-19T18:45:55.934Z,63.92
2018-12-19T18:48:22.129Z,63.65
2018-12-19T18:50:49.444Z,63.92
2018-12-19T18:53:15.570Z,63.87
2018-12-19T18:55:41.830Z,64.62
2018-12-19T18:58:08.128Z,63.53
2018-12-19T19:00:43.154Z,63.84
2018-12-19T19:03:10.087Z,63.44
2018-12-19T19:05:37.315Z,63.34
2018-12-19T19:10:43.025Z,62.43
2018-12-19T19:13:09.310Z,62.35
2018-12-19T19:18:31.416Z,62.86
2018-12-19T19:20:57.617Z,62.36
2018-12-19T19:23:23.953Z,62.76
2018-12-19T19:25:50.102Z,61.74
2018-12-19T19:28:16.298Z,62.22
2018-12-19T19:30:42.371Z,62.97
2018-12-19T19:33:08.717Z,62.72
2018-12-19T19:35:34.935Z,63.34
2018-12-19T19:38:01.171Z,63.26
2018-12-19T19:40:27.370Z,62.95
2018-12-19T19:42:53.568Z,63.02
2018-12-19T19:45:19.962Z,62.91
2018-12-19T19:47:46.079Z,63.77
2018-12-19T19:50:12.756Z,63.70
2018-12-19T19:52:39.001Z,64.13
2018-12-19T19:55:05.451Z,64.72
2018-12-19T19:57:31.567Z,65.14
2018-12-19T19:59:57.702Z,65.25
2018-12-19T20:02:23.906Z,65.52
2018-12-19T20:04:50.138Z,65.37
2018-12-19T20:07:16.300Z,65.74
2018-12-19T20:09:42.784Z,65.45
2018-12-19T20:12:10.230Z,65.38
2018-12-19T20:14:36.596Z,65.37
2018-12-19T20:17:02.969Z,65.89
2018-12-19T20:19:29.481Z,66.33
2018-12-19T20:21:55.707Z,66.72
2018-12-19T20:24:21.944Z,66.33
2018-12-19T20:26:48.417Z,65.81
2018-12-19T20:29:14.709Z,66.06
2018-12-19T20:31:43.620Z,65.79
2018-12-19T20:34:10.627Z,65.79
2018-12-19T20:36:37.256Z,65.91
2018-12-19T20:39:06.370Z,66.69
2018-12-19T20:41:32.467Z,66.48
2018-12-19T20:44:05.894Z,66.84
2018-12-19T20:46:32.252Z,66.15
2018-12-19T20:48:58.515Z,66.03
2018-12-19T20:51:24.718Z,65.67
2018-12-19T20:53:51.063Z,65.90
2018-12-19T20:56:17.293Z,65.63
2018-12-19T20:58:43.520Z,64.82
2018-12-19T21:01:09.736Z,65.30
2018-12-19T21:03:35.869Z,64.89
2018-12-19T21:06:02.301Z,65.23
2018-12-19T21:08:28.526Z,64.94
2018-12-19T21:10:54.720Z,64.73
2018-12-19T21:13:21.196Z,65.09
2018-12-19T21:15:47.410Z,64.79
2018-12-19T21:18:19.676Z,64.72
2018-12-19T21:20:46.004Z,64.38
2018-12-19T21:23:12.357Z,64.89
2018-12-19T21:25:38.442Z,64.61
2018-12-19T21:28:04.849Z,65.12
2018-12-19T21:30:30.996Z,64.57
2018-12-19T21:32:57.133Z,64.99
2018-12-19T21:35:23.388Z,64.73
2018-12-19T21:37:49.667Z,64.33
2018-12-19T21:40:16.154Z,64.65
2018-12-19T21:42:42.951Z,64.87
2018-12-19T21:45:09.308Z,65.04
2018-12-19T21:47:35.561Z,64.86
2018-12-19T21:50:02.193Z,65.58
2018-12-19T21:52:28.760Z,64.97
2018-12-19T21:54:55.098Z,65.36
2018-12-19T21:57:27.439Z,65.49
2018-12-19T21:59:53.789Z,65.88
2018-12-19T22:02:20.010Z,65.73
2018-12-19T22:04:46.530Z,66.00
2018-12-19T22:07:12.882Z,66.02
2018-12-19T22:09:39.102Z,66.47
2018-12-19T22:12:05.661Z,66.98
2018-12-19T22:14:32.027Z,66.23
2018-12-19T22:17:04.595Z,67.73
2018-12-19T22:19:30.939Z,67.32
2018-12-19T22:21:57.300Z,67.15
2018-12-19T22:24:23.433Z,66.75
2018-12-19T22:26:49.632Z,67.11
2018-12-19T22:29:16.193Z,67.70
2018-12-19T22:31:42.408Z,66.75
2018-12-19T22:34:08.497Z,66.94
2018-12-19T22:36:34.916Z,67.28
2018-12-19T22:39:01.224Z,67.05
2018-12-19T22:41:27.557Z,66.89
2018-12-19T22:43:54.477Z,67.32
2018-12-19T22:46:20.740Z,67.13
2018-12-19T22:48:46.920Z,66.48
2018-12-19T22:51:13.185Z,66.16
2018-12-19T22:53:39.276Z,65.76
2018-12-19T22:56:05.551Z,66.40
2018-12-19T22:58:31.714Z,66.52
2018-12-19T23:01:04.318Z,66.49
2018-12-19T23:03:36.753Z,66.87
2018-12-19T23:06:03.166Z,67.41
2018-12-19T23:08:29.562Z,66.88
2018-12-19T23:10:55.913Z,67.15
2018-12-19T23:13:23.192Z,67.69
2018-12-19T23:15:49.429Z,67.74
2018-12-19T23:18:21.988Z,67.24
2018-12-19T23:20:48.520Z,67.81
2018-12-19T23:23:14.769Z,67.43
2018-12-19T23:25:41.011Z,67.30
2018-12-19T23:28:07.337Z,67.55
2018-12-19T23:30:33.707Z,67.83
2018-12-19T23:32:59.892Z,67.26
2018-12-19T23:35:26.165Z,67.85
2018-12-19T23:37:52.256Z,67.80
2018-12-19T23:40:18.788Z,67.63
2018-12-19T23:42:45.063Z,67.99
2018-12-19T23:45:11.567Z,67.78
2018-12-19T23:47:38.758Z,68.10
2018-12-19T23:50:05.282Z,68.71
2018-12-19T23:52:31.635Z,68.49
2018-12-19T23:54:57.822Z,68.84
2018-12-19T23:57:24.070Z,68.42
2018-12-19T23:59:50.380Z,69.54
